Terminal Aerodrome Forecast
Issued by NWS Lake Charles, LA

Home | Current Version | Previous Version | Text Only | Print | Product List | Glossary On
Versions: 1 2 3 4 5 6 7 8 9 10 11 12 13 14 15 16 17 18 19 20
000
FTUS44 KLCH 260520
TAFAEX
TAF
KAEX 260520Z 2606/2706 VRB03KT 2SM BR SCT004
     FM260800 VRB03KT 1/4SM FG VV001
     FM261400 VRB03KT P6SM BKN140=

USA.gov is the U.S. government's official web portal to all federal, state and local government web resources and services.